Ana Sayfa
METAR-TAF:

METAR-TAF

Havaalanları :

Tahran, İran

Mehrabad Havalimanı

Enlem: 35-41N, Boylam: 051-21E, yükseklik: 1204 m

Güncel hava durumu gözlemi

Rapor saat 15:00 UTC de 4 saat ve 21 dakika önce yapıldı.
Rüzgar batıdan 10 kt
Sıcaklık 11°C
Nem 43%
Basınç 1015 hPa
Görüş mesafesi 10 km veya daha fazla
1500 m altında bulut yok ve kümülonimbus yok

METAR: OIII 201500Z 27010KT CAVOK 11/M01 Q1015 A2998

Saat: 22:51 (19:21 UTC)

Tahmin

Rapor saat 11:00 UTC de 8 saat ve 21 dakika önce yapıldı.
Ayın 20'si saat 12 UTC'den ayın 21'si saat 18 UTC'ye kadar geçerli Tahmin
Rüzgar kuzey/kuzeybatıdan 8 kt
Görüş mesafesi 10 km veya daha fazla
1500 m altında bulut yok ve kümülonimbus yok
Geçici
ayın 21'si saat 06 UTC'den ayın 21'si saat 15 UTC'ye kadar
3500 ft yükseklikte az bulutlu, Yükselen kümülüs.
4000 ft yükseklikte parçalı bulutlu
10000 ft yükseklikte parçalı çok bulutlu

TAF: OIII 201100Z 2012/2118 33004MPS CAVOK TEMPO 2106/2115 FEW035TCU SCT040 BKN100

4.000'den fazla havaalanı için hava durumu gözlemleri ve tahminleri (METAR ve TAF raporları).

Kullanılabilir istasyonlar harita üzerinde sarı ve kırmızı noktalarla gösterilir.

İstasyonun adını görmek için fareyi noktanın üzerinde gezdirin.

Sonrasında hava gözlem ve tahminlerini görmek için tıklayın.

Haritayı değiştirmek için: yaklaştırmak için siyah artı işaretli yeşil düğmeye ve uzaklaştırmak için de eksi işaretli düğmeye hızla tıklayın; bitişik haritalar için yeşil okları kullanın.


METAR-TAF: